Alushta, Ukraine

10:30 AM EEST on September 01, 2014 (GMT +0300)
Simferopol' | Change Station
CLOSE
Current Station
Airport
Location: Simferopol,
Elevation: 610 ft
Nearby Weather Stations

Elev 610 ft 45.03 °N, 33.98 °E | Updated 32 days ago

Clear
Clear
79 °F
Feels Like 79 °F
N
11
Wind Variable Wind from NE
Gusts mph

Today
High -- | Low -- °F
--% Chance of Precip.
Yesterday
High -- | Low -- °F
Precip. -- in
6:04 AM 7:19 PM
Waxing Crescent, 38% visible
Pressure 29.86 in
Visibility -9999.0 miles
Clouds
Dew Point 57 °F
Humidity 47%
Rainfall 0.00 in
Snow Depth Not available.
UV Not available.
Pollen Not available.
Air Quality Not available.
Flu Activity Not available.
METAR UKFF 301200Z 06010MPS 040V100 CAVOK 31/09 Q1011 WS RWY01 01010065 NOSIG

More Conditions Fewer Conditions

Pressure 29.86 in
Visibility -9999.0 miles
Clouds
Dew Point 57 °F
Humidity 47%
Rainfall 0.00 in
Snow Depth Not available.
UV Not available.
Pollen Not available.
Air Quality Not available.
Flu Activity Not available.
METAR UKFF 301200Z 06010MPS 040V100 CAVOK 31/09 Q1011 WS RWY01 01010065 NOSIG

More Conditions Fewer Conditions

10-Day Weather Forecast

Almanac

Astronomy

Sep. 01, 2014 Rise Set
Actual Time 6:04 AM EEST 7:19 PM EEST
Civil Twilight 5:34 AM EEST 7:49 PM EEST
Nautical Twilight 4:57 AM EEST 8:25 PM EEST
Astronomical Twilight 4:19 AM EEST 9:04 PM EEST
Moon 12:45 PM EEST 10:47 PM EEST
Length of Visible Light 14h 15m
Length of Day
13h 15m
Tomorrow will be 2m 59s shorter.
Waxing Crescent, 38% of the Moon is Illuminated
Today
Waxing Crescent
Sep 2
First Quarter
Sep 8
Full
Sep 15
Last Quarter
Sep 24
New

Yesterday's Extremes

Country Highs Country Lows

Community

WunderPhotos

Upload Photos

1,749,154 photos uploaded!

Nearby

Snow Depth

Not available.

Earthquake Activity

City Distance Mag. Time & Date
No recent earthquake activity has been reported nearby.
Minimum magnitude displayed is 2.5.

Coastal Water Temperatures

Place Temperature
No Stations Reporting

Nearby Weather Stations